Terminal Aerodrome Forecast
Issued by NWS Pittsburgh, PA

Current Version | Previous Version | Text Only | Print | Product List | Glossary Off
Versions: 1 2 3 4 5 6 7 8 9 10 11 12 13 14 15 16 17 18 19 20 21 22 23 24 25 26 27 28 29 30 31

000
FTUS41 KPBZ 232000 AAA
TAFPIT
TAF AMD
KPIT 232058Z 2321/2424 14008KT P6SM BKN250
     FM240200 15008KT 6SM -RA BKN050
     FM240400 18012KT 5SM -RA OVC015
     FM241100 17013KT P6SM OVC025
     FM241500 19017G35KT P6SM BKN050=

USA.gov is the U.S. government's official web portal to all federal, state and local government web resources and services.